Time;durP1;ratioP1;P1;durP2;ratioP2;P2;SDS_P1;SDS_P2;PMS_P1;PMS_P2;Temp;Humidity;BMP_temperature;BMP_pressure;BME280_temperature;BME280_humidity;BME280_pressure;Samples;Min_cycle;Max_cycle;Signal;HPM_P1;HPM_P2
2022/09/10 00:00:57;;;;;;;3.45;3.10;;;22.60;99.90;;;;;;4146964;28;20217;-71
2022/09/10 00:03:02;;;;;;;5.72;3.53;;;22.60;99.90;;;;;;4146741;28;20225;-72
2022/09/10 00:05:05;;;;;;;3.97;2.97;;;22.60;99.90;;;;;;4156805;28;20700;-71
2022/09/10 00:07:08;;;;;;;6.10;3.35;;;22.60;99.90;;;;;;4163438;28;20673;-71
2022/09/10 00:09:12;;;;;;;5.63;2.85;;;22.60;99.90;;;;;;4162937;28;20275;-71
2022/09/10 00:11:14;;;;;;;4.03;2.95;;;22.60;99.90;;;;;;4161346;28;20220;-71
2022/09/10 00:13:19;;;;;;;4.30;3.05;;;22.60;99.90;;;;;;4163166;28;20976;-71
2022/09/10 00:15:22;;;;;;;4.40;3.08;;;22.60;99.90;;;;;;4163551;28;20573;-72
2022/09/10 00:17:25;;;;;;;4.72;3.17;;;22.60;99.90;;;;;;4163340;28;20220;-71
2022/09/10 00:19:30;;;;;;;6.22;3.35;;;22.60;99.90;;;;;;4149710;28;20232;-71
2022/09/10 00:21:33;;;;;;;5.25;2.92;;;22.60;99.90;;;;;;4162972;28;20228;-72
2022/09/10 00:23:35;;;;;;;5.40;3.45;;;22.60;99.90;;;;;;4163324;28;20262;-71
2022/09/10 00:25:38;;;;;;;5.32;3.65;;;22.60;99.90;;;;;;4162717;28;20216;-71
2022/09/10 00:27:41;;;;;;;4.43;3.50;;;22.60;99.90;;;;;;4159357;28;20208;-72
2022/09/10 00:29:43;;;;;;;4.35;3.28;;;22.50;99.90;;;;;;4159513;28;20220;-71
2022/09/10 00:31:45;;;;;;;4.65;3.20;;;22.50;99.90;;;;;;4161736;28;20267;-71
2022/09/10 00:33:48;;;;;;;4.30;3.17;;;22.50;99.90;;;;;;4161327;28;20278;-72
2022/09/10 00:35:52;;;;;;;3.80;2.88;;;22.60;99.90;;;;;;4160471;28;20275;-71
2022/09/10 00:37:55;;;;;;;3.88;3.10;;;22.50;99.90;;;;;;4161557;28;20295;-71
2022/09/10 00:39:58;;;;;;;5.60;2.78;;;22.50;99.90;;;;;;4161778;28;20239;-71
2022/09/10 00:42:00;;;;;;;4.13;3.20;;;22.50;99.90;;;;;;4160843;28;20224;-71
2022/09/10 00:44:04;;;;;;;4.18;3.42;;;22.50;99.90;;;;;;4161260;28;20244;-71
2022/09/10 00:46:07;;;;;;;6.95;3.55;;;22.50;99.90;;;;;;4158873;28;20245;-71
2022/09/10 00:48:14;;;;;;;3.88;3.05;;;22.50;99.90;;;;;;4161235;28;20236;-71
2022/09/10 00:50:23;;;;;;;6.03;3.50;;;22.50;99.90;;;;;;4159281;28;20243;-72
2022/09/10 00:52:28;;;;;;;4.82;3.20;;;22.50;99.90;;;;;;4159096;28;20228;-72
2022/09/10 00:54:32;;;;;;;5.35;3.40;;;22.50;99.90;;;;;;4161505;28;20735;-72
2022/09/10 00:56:35;;;;;;;4.57;2.97;;;22.50;99.90;;;;;;4161854;28;20615;-71
2022/09/10 00:58:38;;;;;;;3.67;3.20;;;22.50;99.90;;;;;;4161044;28;20212;-72
2022/09/10 01:00:41;;;;;;;5.35;2.97;;;22.50;99.90;;;;;;4161851;28;20665;-71
2022/09/10 01:02:43;;;;;;;3.92;3.30;;;22.50;99.90;;;;;;4159299;28;20216;-71
2022/09/10 01:04:47;;;;;;;3.83;3.33;;;22.50;99.90;;;;;;4158799;28;20290;-71
2022/09/10 01:06:51;;;;;;;4.47;3.08;;;22.50;99.90;;;;;;4142802;28;20708;-71
2022/09/10 01:08:55;;;;;;;4.53;3.00;;;22.50;99.90;;;;;;4145057;28;20229;-71
2022/09/10 01:11:10;;;;;;;3.58;3.03;;;22.50;99.90;;;;;;4144995;28;20665;-72
2022/09/10 01:13:35;;;;;;;3.00;2.70;;;22.50;99.90;;;;;;4150335;28;20278;-72
2022/09/10 01:15:46;;;;;;;3.58;2.95;;;22.50;99.90;;;;;;4149125;28;20533;-71
2022/09/10 01:18:04;;;;;;;4.50;3.20;;;22.50;99.90;;;;;;4143585;28;20225;-71
2022/09/10 01:20:31;;;;;;;4.07;2.97;;;22.50;99.90;;;;;;4143253;28;20225;-71
2022/09/10 01:22:46;;;;;;;4.72;3.33;;;22.50;99.90;;;;;;4144900;28;20228;-71
2022/09/10 01:24:55;;;;;;;6.70;3.55;;;22.50;99.90;;;;;;4154991;28;20245;-72
2022/09/10 01:27:30;;;;;;;6.07;3.40;;;22.50;99.90;;;;;;4148165;28;20209;-72
2022/09/10 01:29:41;;;;;;;4.40;3.40;;;22.50;99.90;;;;;;4135755;28;20669;-71
2022/09/10 01:31:50;;;;;;;4.35;3.40;;;22.50;99.90;;;;;;4145844;28;20224;-71
2022/09/10 01:33:57;;;;;;;5.15;3.20;;;22.50;99.90;;;;;;4146049;28;20657;-71
2022/09/10 01:36:05;;;;;;;3.90;3.15;;;22.50;99.90;;;;;;4142028;28;20225;-71
2022/09/10 01:38:12;;;;;;;3.10;2.80;;;22.50;99.90;;;;;;4139176;28;20295;-71
2022/09/10 01:40:16;;;;;;;4.82;3.05;;;22.50;99.90;;;;;;4146087;28;20271;-72
2022/09/10 01:42:19;;;;;;;3.85;2.97;;;22.50;99.90;;;;;;4145804;28;20651;-71
2022/09/10 01:44:56;;;;;;;3.20;2.88;;;22.50;99.90;;;;;;4146004;28;20229;-71
2022/09/10 01:47:10;;;;;;;4.53;2.80;;;22.50;99.90;;;;;;4103843;28;20242;-71
2022/09/10 01:49:25;;;;;;;5.43;3.08;;;22.50;99.90;;;;;;4107769;28;20242;-71
2022/09/10 01:51:38;;;;;;;4.90;3.13;;;22.40;99.90;;;;;;4083207;29;20223;-71
2022/09/10 01:53:54;;;;;;;4.13;2.95;;;22.50;99.90;;;;;;4091447;28;20687;-71
2022/09/10 01:56:03;;;;;;;3.58;3.00;;;22.50;99.90;;;;;;4111172;28;20659;-71
2022/09/10 01:58:16;;;;;;;4.95;3.10;;;22.50;99.90;;;;;;4099153;28;20261;-71
2022/09/10 02:00:21;;;;;;;4.50;3.20;;;22.50;99.90;;;;;;4106270;28;20297;-71
2022/09/10 02:02:27;;;;;;;5.07;3.40;;;22.40;99.90;;;;;;4111322;28;20277;-71
2022/09/10 02:04:31;;;;;;;4.50;3.03;;;22.40;99.90;;;;;;4116987;28;20245;-71
2022/09/10 02:06:37;;;;;;;4.15;3.28;;;22.40;99.90;;;;;;4108647;28;20280;-72
2022/09/10 02:08:43;;;;;;;4.28;3.05;;;22.40;99.90;;;;;;4143250;28;20632;-71
2022/09/10 02:10:52;;;;;;;3.42;3.10;;;22.50;99.90;;;;;;4130336;28;20702;-72
2022/09/10 02:12:54;;;;;;;3.80;2.90;;;22.50;99.90;;;;;;4143026;28;20352;-71
2022/09/10 02:14:58;;;;;;;6.15;2.85;;;22.50;99.90;;;;;;4143317;28;20221;-71
2022/09/10 02:17:02;;;;;;;4.57;3.22;;;22.50;99.90;;;;;;4143279;28;20224;-71
2022/09/10 02:19:06;;;;;;;5.03;2.92;;;22.40;99.90;;;;;;4160068;28;20232;-72
2022/09/10 02:21:11;;;;;;;3.30;2.83;;;22.50;99.90;;;;;;4161544;28;20221;-71
2022/09/10 02:23:17;;;;;;;3.63;3.00;;;22.50;99.90;;;;;;4161614;28;20228;-71
2022/09/10 02:25:19;;;;;;;4.70;3.15;;;22.50;99.90;;;;;;4161308;28;20290;-72
2022/09/10 02:27:22;;;;;;;3.67;3.10;;;22.50;99.90;;;;;;4160788;28;20216;-71
2022/09/10 02:29:24;;;;;;;4.20;3.20;;;22.50;99.90;;;;;;4160636;28;20738;-71
2022/09/10 02:31:27;;;;;;;4.03;2.78;;;22.40;99.90;;;;;;4165095;28;20593;-71
2022/09/10 02:33:31;;;;;;;5.25;3.10;;;22.40;99.90;;;;;;4164985;28;20227;-72
2022/09/10 02:35:33;;;;;;;5.35;3.20;;;22.40;99.90;;;;;;4164606;28;20242;-72
2022/09/10 02:37:36;;;;;;;4.65;3.10;;;22.40;99.90;;;;;;4164842;28;20216;-72
2022/09/10 02:39:38;;;;;;;4.30;3.05;;;22.40;99.90;;;;;;4164377;28;20281;-71
2022/09/10 02:41:41;;;;;;;5.10;3.20;;;22.40;99.90;;;;;;4164868;28;20220;-71
2022/09/10 02:43:45;;;;;;;4.25;3.08;;;22.40;99.90;;;;;;4160906;28;20275;-71
2022/09/10 02:45:47;;;;;;;3.20;2.78;;;22.40;99.90;;;;;;4161865;28;20290;-71
2022/09/10 02:47:49;;;;;;;4.13;2.92;;;22.40;99.90;;;;;;4164420;28;20228;-72
2022/09/10 02:49:53;;;;;;;3.42;2.70;;;22.40;99.90;;;;;;4163169;28;20271;-72
2022/09/10 02:51:55;;;;;;;4.93;2.65;;;22.40;99.90;;;;;;4163061;28;20216;-71
2022/09/10 02:53:58;;;;;;;3.78;2.90;;;22.40;99.90;;;;;;4165812;28;20657;-70
2022/09/10 02:56:00;;;;;;;3.40;2.92;;;22.40;99.90;;;;;;4166239;28;20278;-71
2022/09/10 02:58:02;;;;;;;4.28;3.20;;;22.40;99.90;;;;;;4165481;28;20224;-71
2022/09/10 03:00:06;;;;;;;4.80;3.40;;;22.40;99.90;;;;;;4171309;28;20213;-72
2022/09/10 03:02:08;;;;;;;5.03;3.00;;;22.40;99.90;;;;;;4162902;28;20629;-72
2022/09/10 03:04:11;;;;;;;4.60;3.08;;;22.40;99.90;;;;;;4164627;28;20653;-72
2022/09/10 03:06:14;;;;;;;4.05;3.05;;;22.40;99.90;;;;;;4164227;28;20321;-71
2022/09/10 03:08:17;;;;;;;4.18;2.80;;;22.40;99.90;;;;;;4164717;28;20225;-72
2022/09/10 03:10:19;;;;;;;5.07;3.20;;;22.40;99.90;;;;;;4164404;28;20220;-72
2022/09/10 03:12:21;;;;;;;3.50;2.80;;;22.40;99.90;;;;;;4164126;28;20220;-72
2022/09/10 03:14:24;;;;;;;4.53;3.03;;;22.40;99.90;;;;;;4164197;28;20656;-71
2022/09/10 03:16:26;;;;;;;3.78;3.13;;;22.40;99.90;;;;;;4163989;28;20212;-72
2022/09/10 03:18:29;;;;;;;3.88;2.83;;;22.40;99.90;;;;;;4163242;28;21103;-71
2022/09/10 03:20:32;;;;;;;4.18;2.88;;;22.40;99.90;;;;;;4164553;28;20641;-71
2022/09/10 03:22:37;;;;;;;5.85;3.30;;;22.40;99.90;;;;;;4164133;28;20216;-72
2022/09/10 03:24:39;;;;;;;4.15;3.03;;;22.40;99.90;;;;;;4163821;28;20220;-71
2022/09/10 03:26:42;;;;;;;3.90;2.80;;;22.40;99.90;;;;;;4163810;28;20240;-72
2022/09/10 03:28:45;;;;;;;5.13;3.08;;;22.40;99.90;;;;;;4164114;28;20631;-71
2022/09/10 03:30:47;;;;;;;4.00;2.88;;;22.40;99.90;;;;;;4163143;28;20216;-71
2022/09/10 03:32:50;;;;;;;4.72;3.22;;;22.40;99.90;;;;;;4163395;28;20228;-72
2022/09/10 03:34:52;;;;;;;4.18;3.17;;;22.40;99.90;;;;;;4160361;28;20224;-71
2022/09/10 03:36:54;;;;;;;5.90;3.13;;;22.40;99.90;;;;;;4162942;28;20715;-71
2022/09/10 03:38:58;;;;;;;4.40;2.70;;;22.40;99.90;;;;;;4161475;28;20220;-72
2022/09/10 03:41:01;;;;;;;3.08;2.78;;;22.40;99.90;;;;;;4162818;28;20362;-72
2022/09/10 03:43:04;;;;;;;4.25;2.90;;;22.40;99.90;;;;;;4162655;28;20220;-72
2022/09/10 03:45:07;;;;;;;5.30;2.92;;;22.40;99.90;;;;;;4162706;28;20279;-72
2022/09/10 03:47:10;;;;;;;4.22;2.80;;;22.40;99.90;;;;;;4162578;28;20302;-72
2022/09/10 03:49:12;;;;;;;5.07;2.80;;;22.40;99.90;;;;;;4161685;28;20220;-71
2022/09/10 03:51:15;;;;;;;4.28;2.80;;;22.40;99.90;;;;;;4162114;28;20648;-71
2022/09/10 03:53:19;;;;;;;3.70;3.05;;;22.40;99.90;;;;;;4159917;28;20296;-71
2022/09/10 03:55:22;;;;;;;3.85;2.97;;;22.40;99.90;;;;;;4158676;28;20216;-71
2022/09/10 03:57:25;;;;;;;5.22;2.72;;;22.40;99.90;;;;;;4161278;28;20343;-71
2022/09/10 03:59:28;;;;;;;2.85;2.50;;;22.40;99.90;;;;;;4159923;28;20272;-71
2022/09/10 04:01:30;;;;;;;4.72;2.83;;;22.40;99.90;;;;;;4161979;28;20263;-71
2022/09/10 04:03:33;;;;;;;3.45;2.97;;;22.40;99.90;;;;;;4162278;28;20229;-71
2022/09/10 04:05:39;;;;;;;5.85;3.20;;;22.30;99.90;;;;;;4152979;28;20237;-72
2022/09/10 04:07:42;;;;;;;4.03;3.30;;;22.40;99.90;;;;;;4145829;28;20276;-72
2022/09/10 04:09:45;;;;;;;4.47;3.13;;;22.40;99.90;;;;;;4147941;28;20327;-71
2022/09/10 04:11:48;;;;;;;4.22;2.88;;;22.40;99.90;;;;;;4155248;28;20275;-72
2022/09/10 04:13:51;;;;;;;4.78;2.80;;;22.40;99.90;;;;;;4145497;28;20216;-71
2022/09/10 04:15:54;;;;;;;4.38;3.22;;;22.30;99.90;;;;;;4145647;28;20252;-71
2022/09/10 04:17:56;;;;;;;3.88;2.88;;;22.30;99.90;;;;;;4145512;28;20224;-71
2022/09/10 04:19:59;;;;;;;4.00;3.13;;;22.40;99.90;;;;;;4145826;28;20221;-71
2022/09/10 04:22:01;;;;;;;4.30;2.95;;;22.40;99.90;;;;;;4145701;28;20275;-71
2022/09/10 04:24:04;;;;;;;5.63;3.45;;;22.40;99.90;;;;;;4145491;28;20225;-71
2022/09/10 04:26:13;;;;;;;4.47;3.00;;;22.30;99.90;;;;;;4144311;28;20253;-71
2022/09/10 04:28:17;;;;;;;4.30;3.03;;;22.30;99.90;;;;;;4145661;28;20224;-72
2022/09/10 04:30:19;;;;;;;3.63;3.00;;;22.30;99.90;;;;;;4144625;28;20221;-71
2022/09/10 04:32:21;;;;;;;3.33;3.00;;;22.30;99.90;;;;;;4145265;28;20225;-72
2022/09/10 04:34:24;;;;;;;4.35;2.97;;;22.30;99.90;;;;;;4145954;28;20686;-72
2022/09/10 04:36:26;;;;;;;4.10;2.88;;;22.40;99.90;;;;;;4145446;28;20300;-71
2022/09/10 04:38:29;;;;;;;5.18;3.20;;;22.40;99.90;;;;;;4145458;28;20224;-71
2022/09/10 04:40:31;;;;;;;4.30;3.05;;;22.30;99.90;;;;;;4143086;28;20225;-72
2022/09/10 04:42:33;;;;;;;4.18;3.05;;;22.40;99.90;;;;;;4148308;28;20753;-71
2022/09/10 04:44:37;;;;;;;5.85;3.25;;;22.30;99.90;;;;;;4145604;28;20229;-72
2022/09/10 04:46:40;;;;;;;3.97;2.58;;;22.30;99.90;;;;;;4145093;28;20241;-72
2022/09/10 04:48:43;;;;;;;4.72;3.40;;;22.40;99.90;;;;;;4143167;28;20217;-71
2022/09/10 04:50:45;;;;;;;3.35;2.75;;;22.30;99.90;;;;;;4145218;28;20665;-72
2022/09/10 04:52:47;;;;;;;3.75;2.72;;;22.30;99.90;;;;;;4145821;28;20221;-71
2022/09/10 04:54:49;;;;;;;4.00;3.08;;;22.30;99.90;;;;;;4144843;28;20229;-71
2022/09/10 04:56:52;;;;;;;3.40;2.80;;;22.30;99.90;;;;;;4148893;28;20272;-72
2022/09/10 04:58:54;;;;;;;5.93;3.13;;;22.30;99.90;;;;;;4145644;28;20280;-71
2022/09/10 05:00:58;;;;;;;4.13;2.88;;;22.30;99.90;;;;;;4143699;28;20657;-72
2022/09/10 05:03:00;;;;;;;3.28;2.90;;;22.30;99.90;;;;;;4145046;28;20221;-71
2022/09/10 05:05:03;;;;;;;3.90;2.78;;;22.30;99.90;;;;;;4145007;28;20288;-71
2022/09/10 05:07:05;;;;;;;5.07;3.17;;;22.30;99.90;;;;;;4145120;28;20248;-72
2022/09/10 05:09:08;;;;;;;4.68;3.10;;;22.30;99.90;;;;;;4145205;28;20229;-71
2022/09/10 05:11:10;;;;;;;4.00;2.80;;;22.30;99.90;;;;;;4143783;28;20225;-72
2022/09/10 05:13:12;;;;;;;6.95;3.58;;;22.30;99.90;;;;;;4145060;28;20268;-72
2022/09/10 05:15:15;;;;;;;5.32;3.30;;;22.30;99.90;;;;;;4144115;28;20225;-72
2022/09/10 05:17:19;;;;;;;4.43;3.20;;;22.30;99.90;;;;;;4143829;28;20269;-72
2022/09/10 05:19:21;;;;;;;3.22;2.83;;;22.30;99.90;;;;;;4144778;28;20740;-71
2022/09/10 05:21:23;;;;;;;4.00;3.00;;;22.30;99.90;;;;;;4144575;28;20221;-72
2022/09/10 05:23:26;;;;;;;3.53;3.08;;;22.30;99.90;;;;;;4144933;28;20220;-72
2022/09/10 05:25:28;;;;;;;4.32;3.40;;;22.30;99.90;;;;;;4145013;28;20217;-72
2022/09/10 05:27:30;;;;;;;5.25;3.30;;;22.30;99.90;;;;;;4144069;28;20276;-72
2022/09/10 05:29:32;;;;;;;3.78;2.92;;;22.30;99.90;;;;;;4144684;28;20225;-72
2022/09/10 05:31:36;;;;;;;4.03;3.40;;;22.30;99.90;;;;;;4144094;28;20672;-71
2022/09/10 05:33:39;;;;;;;4.15;3.22;;;22.30;99.90;;;;;;4142337;28;20217;-72
2022/09/10 05:35:42;;;;;;;4.63;3.42;;;22.30;99.90;;;;;;4143958;28;20295;-71
2022/09/10 05:37:44;;;;;;;3.00;2.47;;;22.30;99.90;;;;;;4144624;28;20723;-71
2022/09/10 05:39:47;;;;;;;4.40;3.03;;;22.30;99.90;;;;;;4144083;28;20807;-71
2022/09/10 05:41:49;;;;;;;3.83;3.17;;;22.30;99.90;;;;;;4143878;28;20280;-71
2022/09/10 05:43:51;;;;;;;3.13;2.83;;;22.30;99.90;;;;;;4144698;28;20287;-72
2022/09/10 05:45:53;;;;;;;3.88;3.25;;;22.30;99.90;;;;;;4144795;28;20216;-71
2022/09/10 05:47:56;;;;;;;5.72;3.45;;;22.30;99.90;;;;;;4144356;28;20317;-71
2022/09/10 05:49:59;;;;;;;3.72;2.92;;;22.30;99.90;;;;;;4143163;28;20264;-71
2022/09/10 05:52:02;;;;;;;3.78;3.15;;;22.30;99.90;;;;;;4142319;28;20277;-71
2022/09/10 05:54:05;;;;;;;3.55;2.83;;;22.30;99.90;;;;;;4144180;28;20217;-71
2022/09/10 05:56:08;;;;;;;4.13;3.15;;;22.30;99.90;;;;;;4144631;28;20263;-71
2022/09/10 05:58:12;;;;;;;4.70;3.10;;;22.30;99.90;;;;;;4144105;28;20225;-71
2022/09/10 06:00:15;;;;;;;5.25;3.40;;;22.30;99.90;;;;;;4144624;28;20729;-71
2022/09/10 06:02:18;;;;;;;3.63;3.30;;;22.30;99.90;;;;;;4144061;28;20283;-71
2022/09/10 06:04:21;;;;;;;4.55;2.90;;;22.30;99.90;;;;;;4148962;28;20248;-71
2022/09/10 06:06:26;;;;;;;4.95;3.80;;;22.30;99.90;;;;;;4159803;28;20224;-72
2022/09/10 06:08:29;;;;;;;3.55;3.03;;;22.30;99.90;;;;;;4156090;28;20288;-71
2022/09/10 06:10:31;;;;;;;4.63;3.55;;;22.30;99.90;;;;;;4160426;28;20271;-72
2022/09/10 06:12:34;;;;;;;4.45;3.45;;;22.30;99.90;;;;;;4160449;28;20225;-71
2022/09/10 06:14:37;;;;;;;3.10;2.80;;;22.30;99.90;;;;;;4160416;28;20225;-71
2022/09/10 06:16:39;;;;;;;4.93;3.20;;;22.30;99.90;;;;;;4159690;28;20224;-71
2022/09/10 06:18:44;;;;;;;3.85;3.45;;;22.30;99.90;;;;;;4161130;28;20228;-71
2022/09/10 06:20:47;;;;;;;5.10;3.63;;;22.30;99.90;;;;;;4161302;28;20224;-71
2022/09/10 06:22:51;;;;;;;4.60;3.40;;;22.30;99.90;;;;;;4161017;28;20271;-72
2022/09/10 06:24:54;;;;;;;4.22;3.25;;;22.30;99.90;;;;;;4158600;28;20257;-71
2022/09/10 06:26:56;;;;;;;3.95;3.28;;;22.30;99.90;;;;;;4160053;28;20224;-72
2022/09/10 06:28:59;;;;;;;3.30;3.00;;;22.30;99.90;;;;;;4160344;28;20270;-71
2022/09/10 06:31:03;;;;;;;4.00;3.30;;;22.30;99.90;;;;;;4160485;28;20629;-71
2022/09/10 06:33:05;;;;;;;3.63;3.30;;;22.30;99.90;;;;;;4160228;28;20259;-72
2022/09/10 06:35:09;;;;;;;4.28;3.50;;;22.30;99.90;;;;;;4160359;28;20631;-71
2022/09/10 06:37:12;;;;;;;3.95;3.03;;;22.30;99.90;;;;;;4159923;28;20305;-72
2022/09/10 06:39:16;;;;;;;4.03;3.28;;;22.30;99.90;;;;;;4160424;28;20225;-71
2022/09/10 06:41:18;;;;;;;5.07;3.40;;;22.30;99.90;;;;;;4160396;28;20715;-71
2022/09/10 06:43:22;;;;;;;3.92;3.28;;;22.30;99.90;;;;;;4156188;28;20274;-71
2022/09/10 06:45:24;;;;;;;4.40;3.50;;;22.30;99.90;;;;;;4157852;28;20228;-71
2022/09/10 06:47:26;;;;;;;3.35;3.05;;;22.30;99.90;;;;;;4158309;28;20240;-71
2022/09/10 06:49:30;;;;;;;4.35;3.53;;;22.30;99.90;;;;;;4160315;28;20221;-71
2022/09/10 06:51:32;;;;;;;4.03;3.40;;;22.30;99.90;;;;;;4159496;28;20217;-71
2022/09/10 06:53:36;;;;;;;5.30;3.20;;;22.30;99.90;;;;;;4159566;28;20669;-71
2022/09/10 06:55:40;;;;;;;4.03;3.10;;;22.30;99.90;;;;;;4159929;28;20625;-71
2022/09/10 06:57:42;;;;;;;4.30;3.03;;;22.30;99.90;;;;;;4160001;28;20220;-71
2022/09/10 06:59:44;;;;;;;3.58;3.10;;;22.30;99.90;;;;;;4155251;28;20224;-71
2022/09/10 07:01:47;;;;;;;3.67;3.28;;;22.30;99.90;;;;;;4158643;28;20275;-72
2022/09/10 07:03:55;;;;;;;4.57;3.63;;;22.30;99.90;;;;;;4159057;28;20251;-71
2022/09/10 07:06:02;;;;;;;3.22;2.90;;;22.30;99.90;;;;;;4142660;28;20213;-71
2022/09/10 07:08:05;;;;;;;3.53;3.20;;;22.30;99.90;;;;;;4143566;28;20245;-71
2022/09/10 07:10:08;;;;;;;3.47;2.80;;;22.30;99.90;;;;;;4142932;28;20276;-71
2022/09/10 07:12:11;;;;;;;4.38;3.15;;;22.30;99.90;;;;;;4143545;28;20295;-72
2022/09/10 07:14:14;;;;;;;3.63;3.28;;;22.30;99.90;;;;;;4144211;28;20233;-72
2022/09/10 07:16:18;;;;;;;3.55;3.22;;;22.30;99.90;;;;;;4143788;28;20225;-72
2022/09/10 07:18:20;;;;;;;3.97;3.40;;;22.30;99.90;;;;;;4146420;28;20213;-72
2022/09/10 07:20:24;;;;;;;5.60;3.42;;;22.30;99.90;;;;;;4146811;28;20263;-72
2022/09/10 07:22:26;;;;;;;4.35;3.40;;;22.30;99.90;;;;;;4146836;28;20299;-72
2022/09/10 07:24:28;;;;;;;3.35;3.03;;;22.30;99.90;;;;;;4146751;28;20713;-72
2022/09/10 07:26:31;;;;;;;3.10;2.90;;;22.30;99.90;;;;;;4146207;28;20213;-72
2022/09/10 07:28:35;;;;;;;4.53;2.97;;;22.30;99.90;;;;;;4143270;28;20237;-72
2022/09/10 07:30:38;;;;;;;4.55;3.40;;;22.30;99.90;;;;;;4146480;28;20632;-72
2022/09/10 07:32:41;;;;;;;4.45;3.47;;;22.30;99.90;;;;;;4144208;28;20736;-72
2022/09/10 07:34:45;;;;;;;3.40;3.10;;;22.30;99.90;;;;;;4145069;28;20620;-72
2022/09/10 07:36:47;;;;;;;6.15;3.78;;;22.30;99.90;;;;;;4146589;28;20225;-72
2022/09/10 07:38:53;;;;;;;5.13;3.75;;;22.40;99.90;;;;;;4144739;28;20277;-72
2022/09/10 07:40:58;;;;;;;5.07;3.65;;;22.30;99.90;;;;;;4146677;28;20225;-72
2022/09/10 07:43:01;;;;;;;5.18;3.72;;;22.30;99.90;;;;;;4146613;28;20281;-73
2022/09/10 07:45:06;;;;;;;4.43;3.40;;;22.30;99.90;;;;;;4145947;28;20268;-72
2022/09/10 07:47:08;;;;;;;4.70;3.58;;;22.30;99.90;;;;;;4146263;28;20217;-72
2022/09/10 07:49:10;;;;;;;4.18;3.30;;;22.30;99.90;;;;;;4145979;28;20241;-72
2022/09/10 07:51:13;;;;;;;4.50;3.22;;;22.30;99.90;;;;;;4142467;28;20331;-72
2022/09/10 07:53:16;;;;;;;4.75;3.63;;;22.30;99.90;;;;;;4146436;28;20602;-72
2022/09/10 07:55:18;;;;;;;5.13;3.60;;;22.30;99.90;;;;;;4146080;28;20225;-72
2022/09/10 07:57:21;;;;;;;4.65;3.70;;;22.30;99.90;;;;;;4145749;28;20217;-72
2022/09/10 07:59:23;;;;;;;5.13;3.70;;;22.30;99.90;;;;;;4145937;28;20284;-72
2022/09/10 08:01:27;;;;;;;3.72;3.42;;;22.30;99.90;;;;;;4145628;28;20268;-72
2022/09/10 08:03:30;;;;;;;4.32;3.72;;;22.40;99.90;;;;;;4145876;28;20284;-72
2022/09/10 08:05:33;;;;;;;4.53;3.83;;;22.40;99.90;;;;;;4159910;28;20681;-72
2022/09/10 08:07:35;;;;;;;4.35;3.38;;;22.40;99.90;;;;;;4159288;28;20221;-72
2022/09/10 08:09:38;;;;;;;4.32;3.40;;;22.40;99.90;;;;;;4161848;28;20297;-72
2022/09/10 08:11:40;;;;;;;4.80;3.50;;;22.40;99.90;;;;;;4162473;28;20665;-72
2022/09/10 08:13:45;;;;;;;4.80;3.55;;;22.40;99.90;;;;;;4161916;28;20283;-72
2022/09/10 08:15:47;;;;;;;3.97;3.55;;;22.40;99.90;;;;;;4161956;28;20370;-72
2022/09/10 08:17:51;;;;;;;4.30;3.55;;;22.40;99.90;;;;;;4162034;28;20232;-72
2022/09/10 08:19:53;;;;;;;5.45;3.50;;;22.40;99.90;;;;;;4160946;28;20450;-72
2022/09/10 08:21:56;;;;;;;3.80;3.35;;;22.40;99.90;;;;;;4159767;28;20313;-72
2022/09/10 08:23:58;;;;;;;4.18;3.70;;;22.40;99.90;;;;;;4160269;28;20287;-72
2022/09/10 08:26:03;;;;;;;4.55;3.85;;;22.40;99.90;;;;;;4160367;28;20255;-72
2022/09/10 08:28:05;;;;;;;3.92;3.60;;;22.40;99.90;;;;;;4161414;28;20278;-72
2022/09/10 08:30:09;;;;;;;5.45;3.65;;;22.40;99.90;;;;;;4161653;28;20225;-72
2022/09/10 08:32:12;;;;;;;4.05;3.40;;;22.40;99.90;;;;;;4161476;28;20221;-72
2022/09/10 08:34:15;;;;;;;5.10;3.63;;;22.40;99.90;;;;;;4161272;28;20220;-72
2022/09/10 08:36:20;;;;;;;3.50;3.20;;;22.40;99.90;;;;;;4161611;28;20294;-72
2022/09/10 08:38:24;;;;;;;4.97;3.80;;;22.40;99.90;;;;;;4162007;28;20224;-72
2022/09/10 08:40:28;;;;;;;4.50;3.80;;;22.40;99.90;;;;;;4160800;28;20618;-72
2022/09/10 08:42:38;;;;;;;3.70;3.28;;;22.40;99.90;;;;;;4161232;28;20239;-72
2022/09/10 08:44:48;;;;;;;4.60;4.15;;;22.40;99.90;;;;;;4161407;28;20224;-72
2022/09/10 08:46:56;;;;;;;4.97;3.60;;;22.40;99.90;;;;;;4161164;28;20256;-72
2022/09/10 08:49:06;;;;;;;4.72;3.50;;;22.50;99.90;;;;;;4161238;28;20239;-72
2022/09/10 08:51:14;;;;;;;3.80;3.50;;;22.50;99.90;;;;;;4166731;28;20286;-72
2022/09/10 08:53:24;;;;;;;4.32;3.30;;;22.40;99.90;;;;;;4160756;28;20211;-72
2022/09/10 08:55:31;;;;;;;4.40;3.72;;;22.40;99.90;;;;;;4160201;28;20274;-72
2022/09/10 08:57:39;;;;;;;4.63;3.88;;;22.40;99.90;;;;;;4159639;28;20221;-72
2022/09/10 08:59:45;;;;;;;4.30;3.90;;;22.40;99.90;;;;;;4161681;28;20239;-72
2022/09/10 09:01:51;;;;;;;4.25;3.22;;;22.40;99.90;;;;;;4161756;28;20282;-72
2022/09/10 09:03:57;;;;;;;4.15;3.72;;;22.50;99.90;;;;;;4160600;28;20271;-72
2022/09/10 09:06:01;;;;;;;3.63;3.33;;;22.50;99.90;;;;;;4145083;28;20217;-72
2022/09/10 09:08:05;;;;;;;4.75;3.90;;;22.50;99.90;;;;;;4145133;28;20257;-72
2022/09/10 09:10:18;;;;;;;4.78;3.92;;;22.50;99.90;;;;;;4142222;28;20237;-72
2022/09/10 09:12:31;;;;;;;4.80;3.88;;;22.50;99.90;;;;;;4144887;28;20293;-72
2022/09/10 09:14:45;;;;;;;3.92;3.53;;;22.50;99.90;;;;;;4143006;28;20691;-72
2022/09/10 09:17:09;;;;;;;5.15;3.95;;;22.50;99.90;;;;;;4144786;28;20217;-72
2022/09/10 09:19:21;;;;;;;4.60;3.90;;;22.50;99.90;;;;;;4143840;28;20623;-73
2022/09/10 09:21:31;;;;;;;4.18;3.78;;;22.40;99.90;;;;;;4144747;28;20276;-72
2022/09/10 09:23:50;;;;;;;3.95;3.65;;;22.50;99.90;;;;;;4145171;28;20641;-72
2022/09/10 09:25:58;;;;;;;5.40;4.03;;;22.50;99.90;;;;;;4144281;28;20209;-72
2022/09/10 09:28:02;;;;;;;4.50;4.10;;;22.50;99.90;;;;;;4144827;28;20220;-72
2022/09/10 09:30:07;;;;;;;4.70;3.80;;;22.60;99.90;;;;;;4144662;28;20307;-72
2022/09/10 09:32:16;;;;;;;4.93;3.83;;;22.60;99.90;;;;;;4142751;28;20225;-72
2022/09/10 09:34:21;;;;;;;4.85;3.55;;;22.50;99.90;;;;;;4143547;28;20232;-72
2022/09/10 09:36:30;;;;;;;5.95;4.03;;;22.50;99.90;;;;;;4144317;28;20301;-72
2022/09/10 09:38:37;;;;;;;4.70;4.00;;;22.50;99.90;;;;;;4144681;28;20283;-72
2022/09/10 09:40:46;;;;;;;4.43;3.72;;;22.60;99.90;;;;;;4144613;28;20229;-72
2022/09/10 09:42:54;;;;;;;4.53;4.13;;;22.60;99.90;;;;;;4144292;28;20212;-72
2022/09/10 09:45:03;;;;;;;4.80;3.50;;;22.60;99.90;;;;;;4144454;28;20220;-72
2022/09/10 09:47:05;;;;;;;4.43;3.92;;;22.60;99.90;;;;;;4144162;28;20224;-72
2022/09/10 09:49:14;;;;;;;4.47;4.07;;;22.60;99.90;;;;;;4144994;28;20237;-72
2022/09/10 09:51:19;;;;;;;5.25;3.80;;;22.60;99.90;;;;;;4145691;28;21761;-72
2022/09/10 09:53:24;;;;;;;5.45;3.70;;;22.70;99.90;;;;;;4144980;28;20217;-72
2022/09/10 09:55:35;;;;;;;5.65;3.65;;;22.70;99.90;;;;;;4144154;28;20221;-72
2022/09/10 09:57:37;;;;;;;4.50;3.70;;;22.70;99.90;;;;;;4143822;28;20225;-72
2022/09/10 09:59:40;;;;;;;4.25;3.78;;;22.70;99.90;;;;;;4144288;28;20575;-72
2022/09/10 10:01:42;;;;;;;4.57;3.83;;;22.70;99.90;;;;;;4145101;28;20221;-72
2022/09/10 10:04:04;;;;;;;4.60;3.88;;;22.70;99.90;;;;;;4144330;28;20287;-72
2022/09/10 10:06:09;;;;;;;4.93;4.03;;;22.70;99.90;;;;;;4172868;28;20275;-72
2022/09/10 10:08:29;;;;;;;5.10;4.20;;;22.70;99.90;;;;;;4177497;28;20630;-72
2022/09/10 10:10:33;;;;;;;4.07;3.58;;;22.80;99.90;;;;;;4177198;28;20269;-72
2022/09/10 10:12:42;;;;;;;5.45;3.65;;;22.80;99.90;;;;;;4177142;28;20285;-72
2022/09/10 10:14:44;;;;;;;3.88;3.55;;;22.80;99.90;;;;;;4177112;28;20227;-72
2022/09/10 10:16:48;;;;;;;4.35;3.70;;;22.80;99.90;;;;;;4177021;28;20219;-72
2022/09/10 10:18:50;;;;;;;7.18;4.35;;;22.80;99.90;;;;;;4176800;28;20227;-72
2022/09/10 10:21:13;;;;;;;4.50;3.65;;;22.80;99.90;;;;;;4177202;28;20223;-73
2022/09/10 10:23:30;;;;;;;4.90;4.40;;;22.80;99.90;;;;;;4172711;28;20635;-73
2022/09/10 10:25:40;;;;;;;4.03;3.70;;;22.80;99.90;;;;;;4175217;28;20249;-72
2022/09/10 10:27:44;;;;;;;6.07;4.20;;;22.80;99.90;;;;;;4176848;28;20219;-72
2022/09/10 10:29:55;;;;;;;5.57;4.18;;;22.80;99.90;;;;;;4177098;28;20711;-72
2022/09/10 10:32:00;;;;;;;5.35;3.78;;;22.80;99.90;;;;;;4176463;28;20223;-72
2022/09/10 10:34:19;;;;;;;4.57;4.00;;;22.80;99.90;;;;;;4176768;28;20216;-72
2022/09/10 10:36:27;;;;;;;5.85;4.03;;;22.80;99.90;;;;;;4176744;28;20737;-72
2022/09/10 10:38:31;;;;;;;4.75;3.65;;;22.80;99.90;;;;;;4176620;28;20624;-72
2022/09/10 10:40:43;;;;;;;4.28;3.88;;;22.90;99.90;;;;;;4173267;28;20219;-72
2022/09/10 10:42:55;;;;;;;5.20;3.78;;;22.80;99.90;;;;;;4177011;28;20223;-72
2022/09/10 10:45:11;;;;;;;3.95;3.58;;;22.90;99.90;;;;;;4175960;28;20224;-72
2022/09/10 10:47:26;;;;;;;4.50;4.10;;;22.90;99.90;;;;;;4176323;28;20269;-72
2022/09/10 10:49:38;;;;;;;5.75;4.32;;;22.90;99.90;;;;;;4179278;28;20236;-72
2022/09/10 10:51:51;;;;;;;3.92;3.53;;;22.90;99.90;;;;;;4179674;28;20227;-72